Time;durP1;ratioP1;P1;durP2;ratioP2;P2;SDS_P1;SDS_P2;PMS_P1;PMS_P2;Temp;Humidity;BMP_temperature;BMP_pressure;BME280_temperature;BME280_humidity;BME280_pressure;Samples;Min_cycle;Max_cycle;Signal;HPM_P1;HPM_P2
2022/11/27 00:02:15;;;;;;;17.20;8.07;;;;;;;;;;5129186;27;20039;-63
2022/11/27 00:04:41;;;;;;;16.08;7.45;;;;;;;;;;5120219;27;20032;-63
2022/11/27 00:07:08;;;;;;;14.38;7.28;;;;;;;;;;5087459;27;20094;-62
2022/11/27 00:09:34;;;;;;;20.88;9.32;;;;;;;;;;5107716;27;20486;-63
2022/11/27 00:12:00;;;;;;;20.45;8.43;;;;;;;;;;5117624;27;20031;-62
2022/11/27 00:14:26;;;;;;;16.80;8.27;;;;;;;;;;5123647;27;20503;-63
2022/11/27 00:16:53;;;;;;;18.50;7.82;;;;;;;;;;5127258;27;20762;-63
2022/11/27 00:19:19;;;;;;;17.40;8.25;;;;;;;;;;5125704;27;20074;-63
2022/11/27 00:21:45;;;;;;;13.02;7.80;;;;;;;;;;5095488;27;20034;-63
2022/11/27 00:24:11;;;;;;;16.67;7.47;;;;;;;;;;5129298;27;20055;-63
2022/11/27 00:26:38;;;;;;;17.60;7.78;;;;;;;;;;5129830;27;20050;-62
2022/11/27 00:29:04;;;;;;;20.08;8.00;;;;;;;;;;5128171;27;20350;-62
2022/11/27 00:31:31;;;;;;;21.88;7.63;;;;;;;;;;5122021;27;20405;-63
2022/11/27 00:33:59;;;;;;;16.33;7.07;;;;;;;;;;5104881;27;20046;-62
2022/11/27 00:36:26;;;;;;;16.15;7.40;;;;;;;;;;5121062;27;20093;-63
2022/11/27 00:38:52;;;;;;;21.73;7.80;;;;;;;;;;5128426;27;20047;-63
2022/11/27 00:41:20;;;;;;;21.88;7.28;;;;;;;;;;5127371;27;20839;-63
2022/11/27 00:43:47;;;;;;;20.83;7.72;;;;;;;;;;5128208;27;20403;-63
2022/11/27 00:46:14;;;;;;;16.92;7.78;;;;;;;;;;5120938;27;20496;-62
2022/11/27 00:48:40;;;;;;;17.02;7.40;;;;;;;;;;5100846;27;20042;-63
2022/11/27 00:51:08;;;;;;;11.98;6.38;;;;;;;;;;5121565;27;20039;-63
2022/11/27 00:53:34;;;;;;;20.13;6.97;;;;;;;;;;5111233;27;20032;-62
2022/11/27 00:56:01;;;;;;;19.63;7.88;;;;;;;;;;5110650;27;20538;-62
2022/11/27 00:58:29;;;;;;;19.40;7.20;;;;;;;;;;5107210;27;20276;-63
2022/11/27 01:00:56;;;;;;;13.10;7.45;;;;;;;;;;5119123;27;20032;-63
2022/11/27 01:03:23;;;;;;;10.13;6.35;;;;;;;;;;5119493;27;20035;-64
2022/11/27 01:05:49;;;;;;;20.30;7.53;;;;;;;;;;5103793;27;20042;-63
2022/11/27 01:08:16;;;;;;;14.93;6.35;;;;;;;;;;5126312;27;20041;-62
2022/11/27 01:10:48;;;;;;;15.80;6.90;;;;;;;;;;5124157;27;20289;-62
2022/11/27 01:13:15;;;;;;;13.80;7.03;;;;;;;;;;5089188;28;20044;-62
2022/11/27 01:15:41;;;;;;;15.23;7.68;;;;;;;;;;5122841;27;20129;-62
2022/11/27 01:18:07;;;;;;;13.43;6.75;;;;;;;;;;5105652;27;20069;-65
2022/11/27 01:20:33;;;;;;;23.30;7.18;;;;;;;;;;5128182;27;20505;-62
2022/11/27 01:22:59;;;;;;;12.65;6.45;;;;;;;;;;5122152;27;20062;-63
2022/11/27 01:25:26;;;;;;;14.13;6.65;;;;;;;;;;5125313;27;20420;-63
2022/11/27 01:27:52;;;;;;;16.45;6.95;;;;;;;;;;5092044;27;20039;-62
2022/11/27 01:30:18;;;;;;;17.90;6.72;;;;;;;;;;5122749;27;20087;-63
2022/11/27 01:32:44;;;;;;;23.73;9.52;;;;;;;;;;5125606;27;20380;-63
2022/11/27 01:35:10;;;;;;;15.32;7.10;;;;;;;;;;5122727;27;20489;-63
2022/11/27 01:37:37;;;;;;;16.20;6.53;;;;;;;;;;5114433;27;20484;-63
2022/11/27 01:40:03;;;;;;;18.73;6.93;;;;;;;;;;5114626;27;20046;-63
2022/11/27 01:42:29;;;;;;;17.33;6.68;;;;;;;;;;5123815;27;20039;-63
2022/11/27 01:44:56;;;;;;;16.73;7.13;;;;;;;;;;5119570;27;20397;-63
2022/11/27 01:47:27;;;;;;;13.13;7.30;;;;;;;;;;5120138;27;20042;-63
2022/11/27 01:49:55;;;;;;;16.33;8.00;;;;;;;;;;5104053;27;20035;-63
2022/11/27 01:52:29;;;;;;;14.80;6.03;;;;;;;;;;5109954;27;20431;-62
2022/11/27 01:55:04;;;;;;;14.05;5.70;;;;;;;;;;5103188;28;20596;-62
2022/11/27 01:57:35;;;;;;;13.68;5.75;;;;;;;;;;5120547;27;20031;-62
2022/11/27 02:00:01;;;;;;;18.20;6.78;;;;;;;;;;5127695;27;20507;-63
2022/11/27 02:02:27;;;;;;;14.00;6.68;;;;;;;;;;5110731;27;20298;-63
2022/11/27 02:04:54;;;;;;;14.40;5.85;;;;;;;;;;5128193;27;20112;-62
2022/11/27 02:07:21;;;;;;;13.90;6.28;;;;;;;;;;5107132;28;20036;-63
2022/11/27 02:09:47;;;;;;;14.48;5.60;;;;;;;;;;5122784;27;20163;-62
2022/11/27 02:12:23;;;;;;;11.90;6.50;;;;;;;;;;5124034;27;20035;-63
2022/11/27 02:14:52;;;;;;;14.40;6.35;;;;;;;;;;5104899;27;20028;-63
2022/11/27 02:17:28;;;;;;;14.27;6.70;;;;;;;;;;5120349;27;20047;-63
2022/11/27 02:19:57;;;;;;;14.98;6.35;;;;;;;;;;5125940;27;20035;-63
2022/11/27 02:22:23;;;;;;;12.25;6.97;;;;;;;;;;5106598;28;20051;-63
2022/11/27 02:25:02;;;;;;;13.93;6.10;;;;;;;;;;5115546;28;20110;-62
2022/11/27 02:27:47;;;;;;;21.35;6.65;;;;;;;;;;5107820;28;20441;-63
2022/11/27 02:30:13;;;;;;;21.42;7.72;;;;;;;;;;5124492;28;20027;-62
2022/11/27 02:32:49;;;;;;;18.48;6.40;;;;;;;;;;5103088;28;20452;-63
2022/11/27 02:35:21;;;;;;;14.50;6.53;;;;;;;;;;5115207;28;20042;-63
2022/11/27 02:37:48;;;;;;;14.32;5.95;;;;;;;;;;5123495;28;20512;-63
2022/11/27 02:40:15;;;;;;;20.10;6.65;;;;;;;;;;5123215;28;20035;-63
2022/11/27 02:42:41;;;;;;;11.73;6.03;;;;;;;;;;5110571;28;20057;-63
2022/11/27 02:45:13;;;;;;;13.93;6.70;;;;;;;;;;5112861;28;20131;-63
2022/11/27 02:47:40;;;;;;;9.07;6.35;;;;;;;;;;5119398;28;20063;-62
2022/11/27 02:50:08;;;;;;;14.18;5.97;;;;;;;;;;5122741;28;20036;-62
2022/11/27 02:52:36;;;;;;;14.48;6.68;;;;;;;;;;5121712;28;20118;-63
2022/11/27 02:55:04;;;;;;;10.93;6.03;;;;;;;;;;5122862;28;20046;-62
2022/11/27 02:57:31;;;;;;;13.32;6.03;;;;;;;;;;5109438;28;20046;-62
2022/11/27 02:59:58;;;;;;;14.38;6.90;;;;;;;;;;5109542;28;20035;-62
2022/11/27 03:02:30;;;;;;;9.88;5.63;;;;;;;;;;5109637;27;20052;-63
2022/11/27 03:04:58;;;;;;;13.05;5.47;;;;;;;;;;5128919;27;20496;-63
2022/11/27 03:07:30;;;;;;;10.57;6.40;;;;;;;;;;5120954;27;20476;-62
2022/11/27 03:09:58;;;;;;;11.70;5.65;;;;;;;;;;5126112;27;20034;-63
2022/11/27 03:12:24;;;;;;;13.07;5.57;;;;;;;;;;5112065;27;20049;-62
2022/11/27 03:14:51;;;;;;;13.50;6.18;;;;;;;;;;5105963;28;20057;-62
2022/11/27 03:17:41;;;;;;;14.70;6.60;;;;;;;;;;5127070;27;20039;-62
2022/11/27 03:20:10;;;;;;;13.82;6.25;;;;;;;;;;5094892;27;20035;-62
2022/11/27 03:22:37;;;;;;;17.00;6.03;;;;;;;;;;5122775;27;20044;-62
2022/11/27 03:25:03;;;;;;;11.18;6.32;;;;;;;;;;5108067;27;20519;-62
2022/11/27 03:27:32;;;;;;;11.95;6.00;;;;;;;;;;5130777;27;20421;-63
2022/11/27 03:30:00;;;;;;;10.80;6.35;;;;;;;;;;5127323;27;20027;-62
2022/11/27 03:32:27;;;;;;;11.00;4.63;;;;;;;;;;5122736;27;20484;-62
2022/11/27 03:34:53;;;;;;;16.00;5.82;;;;;;;;;;5123839;27;20046;-63
2022/11/27 03:37:20;;;;;;;11.00;5.40;;;;;;;;;;5100457;27;20206;-63
2022/11/27 03:39:46;;;;;;;11.55;6.05;;;;;;;;;;5110562;27;20049;-62
2022/11/27 03:42:20;;;;;;;9.45;5.97;;;;;;;;;;5113273;27;20184;-62
2022/11/27 03:44:54;;;;;;;10.73;5.63;;;;;;;;;;5117571;27;20039;-63
2022/11/27 03:47:27;;;;;;;15.13;5.63;;;;;;;;;;5117683;27;20055;-62
2022/11/27 03:50:08;;;;;;;11.25;6.68;;;;;;;;;;5127353;27;20045;-63
2022/11/27 03:52:53;;;;;;;10.55;6.38;;;;;;;;;;5119598;27;20036;-63
2022/11/27 03:55:22;;;;;;;15.93;6.68;;;;;;;;;;5124614;27;20485;-63
2022/11/27 03:57:59;;;;;;;14.13;6.93;;;;;;;;;;5128949;27;20058;-63
2022/11/27 04:00:27;;;;;;;15.13;6.30;;;;;;;;;;5121906;27;20525;-62
2022/11/27 04:02:53;;;;;;;15.23;6.82;;;;;;;;;;5117030;27;20092;-62
2022/11/27 04:05:20;;;;;;;12.55;5.72;;;;;;;;;;5112105;27;20053;-62
2022/11/27 04:07:46;;;;;;;15.45;6.22;;;;;;;;;;5091734;28;20073;-62
2022/11/27 04:10:12;;;;;;;14.88;6.65;;;;;;;;;;5105652;27;20035;-62
2022/11/27 04:12:38;;;;;;;13.48;6.38;;;;;;;;;;5118436;27;20130;-62
2022/11/27 04:15:05;;;;;;;10.50;6.78;;;;;;;;;;5100270;27;20073;-63
2022/11/27 04:17:31;;;;;;;14.50;5.97;;;;;;;;;;5104311;28;20035;-63
2022/11/27 04:19:58;;;;;;;15.85;5.95;;;;;;;;;;5123229;27;20035;-63
2022/11/27 04:22:24;;;;;;;10.88;7.47;;;;;;;;;;5108201;27;20047;-63
2022/11/27 04:24:50;;;;;;;14.48;6.72;;;;;;;;;;5129125;27;20039;-62
2022/11/27 04:27:17;;;;;;;13.27;5.93;;;;;;;;;;5115919;27;20039;-63
2022/11/27 04:29:43;;;;;;;10.63;6.35;;;;;;;;;;5127849;27;20038;-63
2022/11/27 04:32:09;;;;;;;20.95;6.85;;;;;;;;;;5128694;27;20027;-63
2022/11/27 04:34:36;;;;;;;9.82;6.28;;;;;;;;;;5118687;27;20027;-62
2022/11/27 04:37:02;;;;;;;12.95;7.30;;;;;;;;;;5110323;27;20046;-62
2022/11/27 04:39:28;;;;;;;9.93;6.60;;;;;;;;;;5128673;27;20031;-62
2022/11/27 04:41:54;;;;;;;14.68;7.22;;;;;;;;;;5119964;27;20185;-62
2022/11/27 04:44:21;;;;;;;13.55;6.53;;;;;;;;;;5127117;27;20063;-62
2022/11/27 04:46:48;;;;;;;10.48;6.82;;;;;;;;;;5092138;27;20501;-62
2022/11/27 04:49:14;;;;;;;13.57;7.22;;;;;;;;;;5126902;27;20390;-62
2022/11/27 04:51:41;;;;;;;16.35;6.72;;;;;;;;;;5123671;27;20028;-62
2022/11/27 04:54:07;;;;;;;11.02;6.00;;;;;;;;;;5109149;27;20497;-62
2022/11/27 04:56:33;;;;;;;13.88;6.00;;;;;;;;;;5108734;27;20423;-62
2022/11/27 04:58:59;;;;;;;12.85;6.32;;;;;;;;;;5104099;27;20076;-62
2022/11/27 05:01:25;;;;;;;12.02;6.22;;;;;;;;;;5110004;27;20055;-62
2022/11/27 05:03:52;;;;;;;14.05;6.22;;;;;;;;;;5120831;27;20613;-63
2022/11/27 05:06:18;;;;;;;12.73;5.65;;;;;;;;;;5125879;27;20039;-62
2022/11/27 05:08:44;;;;;;;12.13;6.57;;;;;;;;;;5125891;27;20438;-63
2022/11/27 05:11:12;;;;;;;15.93;5.50;;;;;;;;;;5108763;27;20126;-63
2022/11/27 05:13:38;;;;;;;12.10;6.20;;;;;;;;;;5121640;27;20035;-62
2022/11/27 05:16:05;;;;;;;10.15;6.05;;;;;;;;;;5122836;27;20035;-62
2022/11/27 05:18:31;;;;;;;11.18;6.32;;;;;;;;;;5123978;27;20299;-62
2022/11/27 05:21:02;;;;;;;10.52;5.68;;;;;;;;;;5119951;27;20096;-62
2022/11/27 05:23:28;;;;;;;9.25;5.07;;;;;;;;;;5122396;27;20052;-63
2022/11/27 05:25:54;;;;;;;14.45;6.40;;;;;;;;;;5092099;27;20446;-62
2022/11/27 05:28:21;;;;;;;13.13;6.82;;;;;;;;;;5119617;27;20129;-63
2022/11/27 05:30:48;;;;;;;9.15;5.43;;;;;;;;;;5106032;27;20114;-62
2022/11/27 05:33:14;;;;;;;14.80;5.95;;;;;;;;;;5118673;27;20100;-63
2022/11/27 05:35:41;;;;;;;8.07;4.72;;;;;;;;;;5106012;27;21151;-62
2022/11/27 05:38:08;;;;;;;16.92;5.88;;;;;;;;;;5105812;27;20111;-62
2022/11/27 05:40:34;;;;;;;11.57;5.57;;;;;;;;;;5101930;27;20035;-62
2022/11/27 05:43:00;;;;;;;10.90;5.13;;;;;;;;;;5116319;27;20039;-62
2022/11/27 05:45:27;;;;;;;9.38;5.43;;;;;;;;;;5115325;27;20508;-63
2022/11/27 05:47:53;;;;;;;8.52;4.93;;;;;;;;;;5115585;27;20548;-63
2022/11/27 05:50:19;;;;;;;13.30;6.28;;;;;;;;;;5116937;27;20035;-62
2022/11/27 05:52:45;;;;;;;14.50;5.70;;;;;;;;;;5114962;27;20037;-63
2022/11/27 05:55:11;;;;;;;10.18;5.50;;;;;;;;;;5123895;27;20059;-63
2022/11/27 05:57:38;;;;;;;12.00;5.63;;;;;;;;;;5100928;27;20041;-62
2022/11/27 06:00:05;;;;;;;11.38;5.88;;;;;;;;;;5124492;27;20045;-63
2022/11/27 06:02:31;;;;;;;12.70;5.38;;;;;;;;;;5104741;28;20132;-62
2022/11/27 06:04:57;;;;;;;10.55;4.97;;;;;;;;;;5125778;27;20084;-62
2022/11/27 06:07:23;;;;;;;12.07;5.00;;;;;;;;;;5113804;27;20040;-62
2022/11/27 06:09:50;;;;;;;8.55;4.55;;;;;;;;;;5111758;27;20088;-62
2022/11/27 06:12:16;;;;;;;8.60;4.72;;;;;;;;;;5118969;27;20086;-62
2022/11/27 06:14:42;;;;;;;13.82;4.95;;;;;;;;;;5119040;27;20038;-62
2022/11/27 06:17:08;;;;;;;9.43;4.40;;;;;;;;;;5112951;27;20104;-62
2022/11/27 06:19:34;;;;;;;8.38;4.75;;;;;;;;;;5120850;27;20038;-63
2022/11/27 06:22:00;;;;;;;13.52;5.03;;;;;;;;;;5121445;27;20393;-62
2022/11/27 06:24:27;;;;;;;14.35;4.63;;;;;;;;;;5117618;27;20046;-62
2022/11/27 06:26:53;;;;;;;10.18;4.47;;;;;;;;;;5123558;27;20519;-63
2022/11/27 06:29:19;;;;;;;9.30;4.65;;;;;;;;;;5120165;28;20384;-63
2022/11/27 06:31:45;;;;;;;9.40;4.80;;;;;;;;;;5116200;28;20035;-63
2022/11/27 06:34:11;;;;;;;7.25;4.57;;;;;;;;;;5108104;28;20039;-62
2022/11/27 06:36:41;;;;;;;10.88;4.55;;;;;;;;;;5127715;27;20050;-62
2022/11/27 06:39:09;;;;;;;16.02;4.97;;;;;;;;;;5125974;27;20071;-62
2022/11/27 06:41:35;;;;;;;10.35;3.88;;;;;;;;;;5115207;27;20043;-62
2022/11/27 06:44:02;;;;;;;9.55;4.40;;;;;;;;;;5119494;27;20598;-62
2022/11/27 06:46:28;;;;;;;8.20;4.75;;;;;;;;;;5119816;27;20035;-62
2022/11/27 06:48:55;;;;;;;10.25;3.90;;;;;;;;;;5120157;27;20088;-62
2022/11/27 06:51:23;;;;;;;8.60;4.82;;;;;;;;;;5115355;27;20481;-63
2022/11/27 06:53:49;;;;;;;11.20;4.90;;;;;;;;;;5128806;27;20158;-62
2022/11/27 06:56:17;;;;;;;8.80;3.85;;;;;;;;;;5125070;27;20045;-62
2022/11/27 06:58:43;;;;;;;11.75;4.15;;;;;;;;;;5126568;27;20078;-62
2022/11/27 07:01:11;;;;;;;8.23;4.75;;;;;;;;;;5130606;27;20042;-62
2022/11/27 07:03:37;;;;;;;10.82;5.18;;;;;;;;;;5117532;27;20047;-62
2022/11/27 07:06:05;;;;;;;9.52;4.13;;;;;;;;;;5115726;27;20039;-63
2022/11/27 07:08:32;;;;;;;10.23;3.55;;;;;;;;;;5111257;27;20031;-62
2022/11/27 07:11:08;;;;;;;7.85;4.35;;;;;;;;;;5115449;27;20036;-62
2022/11/27 07:13:35;;;;;;;8.90;4.55;;;;;;;;;;5114911;27;20039;-62
2022/11/27 07:16:01;;;;;;;8.25;4.80;;;;;;;;;;5119776;27;20043;-62
2022/11/27 07:18:30;;;;;;;9.52;5.78;;;;;;;;;;5116815;27;20039;-62
2022/11/27 07:20:57;;;;;;;9.70;4.10;;;;;;;;;;5101812;27;20469;-63
2022/11/27 07:23:23;;;;;;;7.22;3.63;;;;;;;;;;5115700;27;21433;-63
2022/11/27 07:25:49;;;;;;;8.27;3.42;;;;;;;;;;5116148;27;20100;-62
2022/11/27 07:28:16;;;;;;;9.57;4.05;;;;;;;;;;5115534;27;20039;-63
2022/11/27 07:30:42;;;;;;;7.80;3.78;;;;;;;;;;5086570;27;20064;-62
2022/11/27 07:33:08;;;;;;;8.45;3.58;;;;;;;;;;5119472;27;20104;-62
2022/11/27 07:35:35;;;;;;;8.38;3.67;;;;;;;;;;5121040;27;20039;-62
2022/11/27 07:38:01;;;;;;;12.15;4.10;;;;;;;;;;5129287;27;20492;-63
2022/11/27 07:40:27;;;;;;;10.98;4.00;;;;;;;;;;5126944;27;20044;-62
2022/11/27 07:42:53;;;;;;;11.23;4.45;;;;;;;;;;5113379;27;20042;-62
2022/11/27 07:45:19;;;;;;;8.52;3.80;;;;;;;;;;5102332;27;20225;-62
2022/11/27 07:47:46;;;;;;;14.07;3.97;;;;;;;;;;5116022;27;20041;-62
2022/11/27 07:50:12;;;;;;;11.43;3.70;;;;;;;;;;5122064;27;20129;-62
2022/11/27 07:52:39;;;;;;;6.70;4.25;;;;;;;;;;5116756;27;20027;-63
2022/11/27 07:55:05;;;;;;;8.38;3.83;;;;;;;;;;5101696;27;20042;-62
2022/11/27 07:57:31;;;;;;;7.65;3.60;;;;;;;;;;5113316;27;20441;-62
2022/11/27 07:59:57;;;;;;;8.15;3.47;;;;;;;;;;5117969;27;20040;-63
2022/11/27 08:02:24;;;;;;;7.68;3.35;;;;;;;;;;5129396;27;20480;-62
2022/11/27 08:04:50;;;;;;;5.85;3.45;;;;;;;;;;5128229;27;20032;-63
2022/11/27 08:07:16;;;;;;;6.95;3.42;;;;;;;;;;5117933;27;20035;-63
2022/11/27 08:09:43;;;;;;;6.93;3.95;;;;;;;;;;5125751;27;20331;-62
2022/11/27 08:12:09;;;;;;;7.85;3.47;;;;;;;;;;5118396;27;20048;-62
2022/11/27 08:14:35;;;;;;;7.07;3.58;;;;;;;;;;5116456;27;20899;-63
2022/11/27 08:17:02;;;;;;;6.57;3.97;;;;;;;;;;5116217;27;20179;-63
2022/11/27 08:19:28;;;;;;;8.15;4.35;;;;;;;;;;5086130;27;21316;-62
2022/11/27 08:21:56;;;;;;;8.23;4.70;;;;;;;;;;5109021;27;20044;-62
2022/11/27 08:24:22;;;;;;;11.30;4.05;;;;;;;;;;5111097;27;20051;-62
2022/11/27 08:26:48;;;;;;;13.32;4.78;;;;;;;;;;5124550;27;20527;-62
2022/11/27 08:29:15;;;;;;;8.27;4.00;;;;;;;;;;5120557;27;20492;-62
2022/11/27 08:31:41;;;;;;;8.05;4.65;;;;;;;;;;5117474;27;20032;-62
2022/11/27 08:34:07;;;;;;;9.52;4.55;;;;;;;;;;5121546;27;20400;-62
2022/11/27 08:36:33;;;;;;;7.22;3.95;;;;;;;;;;5124613;27;20257;-62
2022/11/27 08:39:00;;;;;;;8.57;4.45;;;;;;;;;;5129618;27;20126;-62
2022/11/27 08:41:26;;;;;;;10.80;5.32;;;;;;;;;;5127723;27;20063;-62
2022/11/27 08:43:52;;;;;;;11.68;4.80;;;;;;;;;;5129295;27;20112;-62
2022/11/27 08:46:18;;;;;;;7.18;3.75;;;;;;;;;;5099471;27;20047;-62
2022/11/27 08:48:44;;;;;;;6.18;3.88;;;;;;;;;;5119954;27;20157;-63
2022/11/27 08:51:13;;;;;;;7.75;3.58;;;;;;;;;;5121094;27;20070;-62
2022/11/27 08:53:40;;;;;;;9.35;3.85;;;;;;;;;;5118850;27;20262;-62
2022/11/27 08:56:12;;;;;;;8.30;4.30;;;;;;;;;;5112916;27;20074;-62
2022/11/27 08:58:39;;;;;;;8.70;4.53;;;;;;;;;;5111780;27;20108;-62
2022/11/27 09:01:25;;;;;;;8.30;4.22;;;;;;;;;;5114543;27;20039;-62
2022/11/27 09:03:52;;;;;;;11.05;4.82;;;;;;;;;;5114423;27;20050;-62
2022/11/27 09:06:20;;;;;;;11.07;5.15;;;;;;;;;;5116776;27;20044;-62
2022/11/27 09:08:47;;;;;;;12.35;4.97;;;;;;;;;;5112411;27;20038;-62
2022/11/27 09:11:14;;;;;;;6.32;4.03;;;;;;;;;;5113809;27;20027;-63
2022/11/27 09:13:40;;;;;;;9.30;4.40;;;;;;;;;;5097309;27;20507;-62
2022/11/27 09:16:09;;;;;;;7.53;4.32;;;;;;;;;;5125553;27;20035;-62
2022/11/27 09:18:35;;;;;;;9.90;4.28;;;;;;;;;;5125649;27;20155;-62
2022/11/27 09:21:06;;;;;;;14.70;5.68;;;;;;;;;;5113962;27;20074;-62
2022/11/27 09:23:33;;;;;;;8.68;4.00;;;;;;;;;;5098424;28;20432;-62
2022/11/27 09:26:03;;;;;;;9.98;4.55;;;;;;;;;;5101352;28;20051;-62
2022/11/27 09:28:29;;;;;;;11.23;5.38;;;;;;;;;;5092635;28;20040;-62
2022/11/27 09:30:56;;;;;;;8.07;4.55;;;;;;;;;;5097814;28;20043;-62
2022/11/27 09:33:23;;;;;;;11.73;5.22;;;;;;;;;;5103222;28;20118;-63
2022/11/27 09:35:50;;;;;;;10.65;4.88;;;;;;;;;;5099849;28;20305;-62
2022/11/27 09:38:16;;;;;;;20.25;6.07;;;;;;;;;;5100504;28;20043;-62
2022/11/27 09:40:53;;;;;;;8.98;4.78;;;;;;;;;;5096150;28;20044;-62
2022/11/27 09:43:22;;;;;;;9.65;5.28;;;;;;;;;;5105067;28;20032;-62
2022/11/27 09:45:50;;;;;;;12.43;5.40;;;;;;;;;;5101068;28;20043;-62
2022/11/27 09:48:52;;;;;;;8.57;4.85;;;;;;;;;;5093194;28;20528;-62
2022/11/27 09:51:28;;;;;;;7.47;4.55;;;;;;;;;;5042307;28;20128;-62
2022/11/27 09:54:00;;;;;;;8.77;4.78;;;;;;;;;;5086342;28;20047;-63
2022/11/27 09:56:26;;;;;;;10.98;5.65;;;;;;;;;;5095853;28;20036;-63
2022/11/27 09:58:59;;;;;;;11.05;5.55;;;;;;;;;;5100307;28;20092;-62
2022/11/27 10:01:26;;;;;;;;;;;;;;;;;;5102078;28;20114;-62
2022/11/27 10:03:52;;;;;;;11.40;5.30;;;;;;;;;;5094367;28;19926;-63
2022/11/27 10:06:20;;;;;;;9.98;5.30;;;;;;;;;;5092063;28;20032;-63
2022/11/27 10:08:58;;;;;;;15.20;5.32;;;;;;;;;;5098772;28;20036;-63
2022/11/27 10:11:29;;;;;;;10.90;5.55;;;;;;;;;;5099559;28;20032;-62
2022/11/27 10:14:11;;;;;;;7.78;5.03;;;;;;;;;;5094605;28;20050;-62
2022/11/27 10:16:40;;;;;;;10.40;4.97;;;;;;;;;;5094010;28;20039;-63
2022/11/27 10:19:15;;;;;;;10.25;5.03;;;;;;;;;;5095246;28;20036;-63
2022/11/27 10:21:45;;;;;;;9.77;4.22;;;;;;;;;;5092738;28;20048;-62
2022/11/27 10:24:35;;;;;;;8.13;5.03;;;;;;;;;;5124809;27;20061;-62
2022/11/27 10:27:03;;;;;;;10.38;5.22;;;;;;;;;;5106435;28;20409;-63
2022/11/27 10:29:48;;;;;;;9.40;5.30;;;;;;;;;;5121029;28;20039;-63
2022/11/27 10:32:16;;;;;;;12.48;5.55;;;;;;;;;;5119609;28;20062;-62
2022/11/27 10:34:45;;;;;;;8.38;6.45;;;;;;;;;;5111060;28;20374;-62
2022/11/27 10:37:17;;;;;;;9.80;5.13;;;;;;;;;;5110872;28;20447;-62
2022/11/27 10:40:16;;;;;;;11.30;4.78;;;;;;;;;;5112445;28;20035;-63
2022/11/27 10:42:42;;;;;;;10.25;5.93;;;;;;;;;;5067646;28;20043;-62
2022/11/27 10:45:27;;;;;;;14.20;5.65;;;;;;;;;;5111044;28;20067;-62
2022/11/27 10:47:54;;;;;;;18.45;6.45;;;;;;;;;;5115544;28;20313;-62
2022/11/27 10:50:20;;;;;;;10.98;5.63;;;;;;;;;;5111584;28;20457;-62
2022/11/27 10:52:56;;;;;;;13.10;4.95;;;;;;;;;;5112558;28;20122;-62
2022/11/27 10:55:49;;;;;;;11.73;6.15;;;;;;;;;;5114959;28;20036;-63
2022/11/27 10:58:19;;;;;;;8.82;5.03;;;;;;;;;;5113804;28;20603;-63
2022/11/27 11:00:46;;;;;;;9.48;5.05;;;;;;;;;;5111545;28;20092;-62
2022/11/27 11:03:17;;;;;;;8.65;5.75;;;;;;;;;;5110183;28;20039;-63
2022/11/27 11:05:54;;;;;;;11.38;5.57;;;;;;;;;;5111939;28;20047;-62
2022/11/27 11:08:23;;;;;;;8.07;4.57;;;;;;;;;;5115016;28;20040;-62
2022/11/27 11:10:52;;;;;;;11.07;4.53;;;;;;;;;;5112565;28;20130;-62
2022/11/27 11:13:20;;;;;;;7.88;5.30;;;;;;;;;;5108455;28;20091;-63
2022/11/27 11:15:48;;;;;;;8.07;6.25;;;;;;;;;;5116054;28;20039;-62
2022/11/27 11:18:19;;;;;;;13.48;5.85;;;;;;;;;;5113460;28;20047;-62
2022/11/27 11:20:50;;;;;;;9.50;5.68;;;;;;;;;;5115052;28;20036;-62
2022/11/27 11:23:21;;;;;;;11.20;6.05;;;;;;;;;;5085444;28;20278;-62
2022/11/27 11:25:49;;;;;;;10.55;5.60;;;;;;;;;;5081151;28;20067;-62
2022/11/27 11:28:18;;;;;;;12.27;6.20;;;;;;;;;;5084764;28;20035;-62
2022/11/27 11:30:52;;;;;;;11.82;6.32;;;;;;;;;;5085995;28;20028;-62
2022/11/27 11:33:18;;;;;;;12.32;6.20;;;;;;;;;;5088753;28;20033;-62
2022/11/27 11:35:50;;;;;;;11.00;5.85;;;;;;;;;;5096031;28;20089;-62
2022/11/27 11:38:18;;;;;;;11.52;6.15;;;;;;;;;;5100116;28;20432;-61
2022/11/27 11:40:56;;;;;;;13.23;6.47;;;;;;;;;;5088060;28;20072;-62
2022/11/27 11:43:25;;;;;;;15.00;6.28;;;;;;;;;;5093929;28;20028;-62
2022/11/27 11:45:52;;;;;;;12.38;6.97;;;;;;;;;;5090937;28;20736;-62
2022/11/27 11:48:25;;;;;;;14.73;6.90;;;;;;;;;;5091611;28;20078;-62
2022/11/27 11:51:01;;;;;;;10.30;6.28;;;;;;;;;;5086147;28;20048;-62
2022/11/27 11:53:33;;;;;;;14.07;6.13;;;;;;;;;;5090013;28;20036;-62
2022/11/27 11:55:59;;;;;;;9.10;5.80;;;;;;;;;;5090517;28;20094;-62
2022/11/27 11:58:37;;;;;;;11.82;6.43;;;;;;;;;;5102382;28;20293;-62
2022/11/27 12:01:25;;;;;;;14.05;7.28;;;;;;;;;;5090663;28;20048;-61
2022/11/27 12:04:06;;;;;;;11.52;6.13;;;;;;;;;;5078334;28;20046;-62
2022/11/27 12:06:39;;;;;;;12.80;8.18;;;;;;;;;;5079510;28;20048;-62
2022/11/27 12:09:30;;;;;;;15.07;7.15;;;;;;;;;;5078427;28;20035;-62
2022/11/27 12:11:59;;;;;;;10.63;6.07;;;;;;;;;;5081535;28;20106;-62
2022/11/27 12:14:25;;;;;;;11.30;8.07;;;;;;;;;;5091908;27;20185;-63
2022/11/27 12:17:08;;;;;;;10.73;6.65;;;;;;;;;;5083208;28;20562;-61
2022/11/27 12:19:40;;;;;;;19.75;7.68;;;;;;;;;;5080763;28;20156;-62
2022/11/27 12:22:36;;;;;;;11.52;7.25;;;;;;;;;;5075765;28;20055;-62
2022/11/27 12:25:22;;;;;;;13.93;8.15;;;;;;;;;;5075664;28;20497;-62
2022/11/27 12:28:07;;;;;;;10.90;6.78;;;;;;;;;;5084595;28;20080;-62
2022/11/27 12:30:54;;;;;;;15.63;7.90;;;;;;;;;;5090757;28;20081;-62
2022/11/27 12:33:32;;;;;;;12.85;7.22;;;;;;;;;;5063051;28;20401;-61
2022/11/27 12:36:14;;;;;;;13.75;6.97;;;;;;;;;;5099449;28;20036;-62
2022/11/27 12:38:59;;;;;;;15.38;8.93;;;;;;;;;;5094352;28;20059;-62
2022/11/27 12:41:34;;;;;;;14.27;7.65;;;;;;;;;;5079200;28;20051;-62
2022/11/27 12:44:00;;;;;;;19.20;7.97;;;;;;;;;;5096704;28;20043;-62
2022/11/27 12:46:36;;;;;;;12.52;6.60;;;;;;;;;;5076023;28;20044;-62
2022/11/27 12:49:05;;;;;;;11.75;5.70;;;;;;;;;;5091717;28;20040;-62
2022/11/27 12:51:36;;;;;;;14.18;6.55;;;;;;;;;;5089079;28;20076;-62
2022/11/27 12:54:13;;;;;;;13.98;7.07;;;;;;;;;;5092049;28;20443;-62
2022/11/27 12:56:39;;;;;;;9.98;6.22;;;;;;;;;;5082612;28;20036;-63
2022/11/27 12:59:12;;;;;;;15.90;7.00;;;;;;;;;;5085136;28;20083;-63
2022/11/27 13:01:38;;;;;;;;;;;;;;;;;;5084372;28;20102;-63
2022/11/27 13:04:23;;;;;;;9.55;5.57;;;;;;;;;;5082478;28;19916;-63
2022/11/27 13:06:55;;;;;;;12.20;5.80;;;;;;;;;;5091699;28;20031;-63
2022/11/27 13:09:45;;;;;;;10.40;5.95;;;;;;;;;;5090416;28;20054;-63
2022/11/27 13:12:17;;;;;;;18.05;7.05;;;;;;;;;;5072474;28;20052;-63
2022/11/27 13:14:46;;;;;;;10.40;8.10;;;;;;;;;;5079147;28;20025;-63
2022/11/27 13:17:16;;;;;;;10.63;5.50;;;;;;;;;;5081120;28;20047;-62
2022/11/27 13:19:50;;;;;;;11.65;6.57;;;;;;;;;;5095064;28;20453;-63
2022/11/27 13:22:26;;;;;;;13.25;7.07;;;;;;;;;;5100597;28;20479;-63
2022/11/27 13:24:54;;;;;;;13.82;7.38;;;;;;;;;;5106001;27;20547;-63
2022/11/27 13:27:23;;;;;;;14.77;7.88;;;;;;;;;;5129169;27;20045;-63
2022/11/27 13:29:59;;;;;;;11.68;6.35;;;;;;;;;;5117482;27;20119;-63
2022/11/27 13:32:27;;;;;;;11.50;6.65;;;;;;;;;;5106559;28;20043;-62
2022/11/27 13:34:56;;;;;;;13.63;6.90;;;;;;;;;;5114521;27;20042;-63
2022/11/27 13:37:36;;;;;;;12.00;6.72;;;;;;;;;;5117210;27;20054;-63
2022/11/27 13:40:07;;;;;;;10.02;7.43;;;;;;;;;;5113277;27;20043;-62
2022/11/27 13:42:35;;;;;;;13.38;7.20;;;;;;;;;;5123104;27;20039;-63
2022/11/27 13:45:04;;;;;;;13.75;6.57;;;;;;;;;;5095843;27;20036;-63
2022/11/27 13:47:36;;;;;;;10.38;6.40;;;;;;;;;;5115168;27;20051;-63
2022/11/27 13:50:04;;;;;;;11.07;5.97;;;;;;;;;;5114493;27;20051;-63
2022/11/27 13:52:30;;;;;;;10.27;6.57;;;;;;;;;;5096526;27;20053;-63
2022/11/27 13:55:01;;;;;;;10.77;6.90;;;;;;;;;;5094499;27;20294;-63
2022/11/27 13:57:29;;;;;;;9.27;6.10;;;;;;;;;;5106633;27;20028;-63
2022/11/27 14:00:08;;;;;;;14.38;6.50;;;;;;;;;;5117396;27;20043;-63
2022/11/27 14:02:48;;;;;;;13.63;7.88;;;;;;;;;;5096763;28;20039;-63
2022/11/27 14:05:16;;;;;;;10.02;7.13;;;;;;;;;;5107166;27;20043;-63
2022/11/27 14:07:45;;;;;;;10.13;6.57;;;;;;;;;;5116730;27;20522;-63
2022/11/27 14:10:21;;;;;;;17.40;8.15;;;;;;;;;;5123600;27;20085;-63
2022/11/27 14:13:05;;;;;;;14.98;8.23;;;;;;;;;;5121241;27;20495;-63
2022/11/27 14:15:39;;;;;;;12.77;7.60;;;;;;;;;;5116651;27;20359;-63
2022/11/27 14:18:18;;;;;;;10.07;6.97;;;;;;;;;;5112360;27;20040;-62
2022/11/27 14:20:54;;;;;;;14.52;7.15;;;;;;;;;;5108167;28;20035;-63
2022/11/27 14:23:30;;;;;;;10.55;7.00;;;;;;;;;;5112482;27;20130;-63
2022/11/27 14:26:02;;;;;;;14.70;7.95;;;;;;;;;;5110825;28;20048;-63
2022/11/27 14:28:30;;;;;;;10.52;6.30;;;;;;;;;;5113056;27;20042;-62
2022/11/27 14:30:58;;;;;;;10.82;7.68;;;;;;;;;;5112105;28;20299;-63
2022/11/27 14:33:25;;;;;;;10.73;6.90;;;;;;;;;;5114096;28;20047;-63
2022/11/27 14:36:01;;;;;;;10.38;6.95;;;;;;;;;;5098692;28;20047;-63
2022/11/27 14:38:28;;;;;;;11.20;7.47;;;;;;;;;;5098659;28;20043;-63
2022/11/27 14:41:07;;;;;;;11.05;7.22;;;;;;;;;;5109115;28;20050;-63
2022/11/27 14:43:33;;;;;;;15.02;7.40;;;;;;;;;;5109760;28;20036;-63
2022/11/27 14:46:00;;;;;;;13.45;7.07;;;;;;;;;;5112500;28;20047;-63
2022/11/27 14:48:28;;;;;;;19.33;7.65;;;;;;;;;;5091775;28;20039;-63